Terminal Aerodrome Forecast
Issued by NWS

Home | Current Version | Previous Version | Text Only | Print | Product List | Glossary On
Versions: 1 2 3 4 5 6 7 8 9 10 11 12 13 14 15 16 17
000
FTUS45 KBOU 210526
TAFAPA
TAF
KAPA 210526Z 2106/2206 20008KT P6SM FEW100 SCT200
     FM211600 31007KT P6SM FEW100 SCT200
     FM211800 02009KT P6SM FEW090 SCT200
     FM212200 06007KT P6SM SCT080 BKN140 PROB30 2122/2202 VRB18G30KT
      -TSRA BKN080CB
     FM220200 15009KT P6SM FEW090 BKN180
     FM220500 20010KT P6SM FEW110 SCT200=

USA.gov is the U.S. government's official web portal to all federal, state and local government web resources and services.